createdAt,value
2022-09-30T00:00:10.071Z,2.35
2022-09-30T00:05:10.029Z,2.22
2022-09-30T00:10:08.367Z,2.88
2022-09-30T00:15:07.161Z,2.20
2022-09-30T00:20:06.019Z,2.47
2022-09-30T00:25:05.360Z,1.83
2022-09-30T00:30:04.462Z,2.53
2022-09-30T00:35:05.336Z,2.15
2022-09-30T00:40:04.227Z,2.28
2022-09-30T00:45:05.504Z,2.15
2022-09-30T00:50:29.000Z,2.15
2022-09-30T00:55:32.272Z,2.60
2022-09-30T01:00:31.527Z,1.90
2022-09-30T01:05:32.090Z,2.42
2022-09-30T01:10:31.278Z,1.90
2022-09-30T01:15:41.421Z,1.95
2022-09-30T01:21:07.582Z,1.95
2022-09-30T01:27:03.149Z,1.73
2022-09-30T01:32:09.811Z,1.73
2022-09-30T01:37:09.546Z,1.75
2022-09-30T01:42:20.147Z,2.05
2022-09-30T01:47:27.741Z,2.00
2022-09-30T01:52:35.979Z,2.00
2022-09-30T01:58:03.057Z,1.52
2022-09-30T02:03:16.779Z,1.50
2022-09-30T02:08:46.382Z,1.88
2022-09-30T02:14:11.620Z,1.63
2022-09-30T02:19:16.648Z,1.42
2022-09-30T02:24:16.676Z,1.60
2022-09-30T02:29:35.782Z,2.00
2022-09-30T02:34:39.506Z,1.70
2022-09-30T02:39:49.902Z,1.80
2022-09-30T02:44:53.311Z,1.80
2022-09-30T02:50:23.192Z,1.80
2022-09-30T02:55:49.859Z,1.95
2022-09-30T03:00:48.905Z,2.03
2022-09-30T03:05:49.273Z,1.60
2022-09-30T03:10:51.030Z,2.63
2022-09-30T03:16:14.027Z,1.80
2022-09-30T03:21:17.388Z,1.90
2022-09-30T03:26:25.121Z,2.33
2022-09-30T03:31:45.012Z,1.92
2022-09-30T03:37:04.379Z,2.40
2022-09-30T03:42:23.163Z,2.58
2022-09-30T03:47:21.514Z,3.45
2022-09-30T03:52:22.078Z,3.78
2022-09-30T03:57:21.774Z,3.40
2022-09-30T04:02:21.332Z,2.63
2022-09-30T04:07:25.226Z,2.38
2022-09-30T04:12:26.124Z,1.90
2022-09-30T04:17:27.101Z,1.80
2022-09-30T04:22:29.072Z,1.75
2022-09-30T04:27:27.618Z,2.13
2022-09-30T04:32:29.178Z,1.63
2022-09-30T04:37:29.172Z,3.53
2022-09-30T04:42:27.921Z,3.25
2022-09-30T04:47:26.678Z,11.10
2022-09-30T04:52:24.332Z,2.13
2022-09-30T04:57:32.055Z,2.22
2022-09-30T05:02:40.447Z,2.78
2022-09-30T05:07:39.162Z,2.60
2022-09-30T05:12:38.800Z,2.13
2022-09-30T05:17:36.915Z,2.55
2022-09-30T05:22:34.797Z,3.20
2022-09-30T05:27:36.029Z,2.72
2022-09-30T05:32:45.315Z,2.80
2022-09-30T05:37:44.718Z,2.22
2022-09-30T05:42:47.452Z,2.40
2022-09-30T05:47:52.043Z,2.25
2022-09-30T05:52:51.691Z,2.50
2022-09-30T05:57:50.587Z,2.38
2022-09-30T06:02:51.881Z,2.92
2022-09-30T06:07:52.655Z,3.15
2022-09-30T06:12:53.675Z,3.60
2022-09-30T06:17:54.552Z,2.92
2022-09-30T06:22:53.345Z,3.08
2022-09-30T06:27:51.795Z,3.58
2022-09-30T06:32:53.516Z,3.00
2022-09-30T06:37:54.646Z,3.42
2022-09-30T06:42:52.365Z,3.47
2022-09-30T06:47:59.759Z,3.72
2022-09-30T06:53:03.146Z,3.83
2022-09-30T06:58:02.518Z,3.90
2022-09-30T07:03:18.461Z,4.60
2022-09-30T07:08:18.772Z,4.25
2022-09-30T07:13:17.265Z,4.72
2022-09-30T07:18:20.697Z,4.20
2022-09-30T07:23:22.194Z,5.20
2022-09-30T07:28:28.231Z,4.13
2022-09-30T07:33:31.403Z,3.15
2022-09-30T07:38:34.105Z,3.85
2022-09-30T07:43:44.209Z,3.50
2022-09-30T07:48:45.966Z,2.67
2022-09-30T07:53:51.442Z,2.53
2022-09-30T07:58:50.135Z,3.00
2022-09-30T08:03:50.969Z,2.00
2022-09-30T08:08:52.164Z,1.67
2022-09-30T08:13:55.888Z,1.90
2022-09-30T08:18:58.662Z,1.92
2022-09-30T08:23:58.154Z,1.70
2022-09-30T08:28:56.461Z,2.22
2022-09-30T08:33:54.574Z,1.75
2022-09-30T08:38:55.221Z,1.80
2022-09-30T08:43:59.335Z,2.63
2022-09-30T08:49:19.179Z,2.33
2022-09-30T08:54:28.744Z,2.75
2022-09-30T08:59:35.199Z,2.70
2022-09-30T09:04:33.617Z,3.47
2022-09-30T09:09:55.161Z,3.05
2022-09-30T09:15:11.928Z,2.33
2022-09-30T09:20:20.387Z,2.30
2022-09-30T09:25:29.669Z,2.42
2022-09-30T09:30:37.190Z,2.95
2022-09-30T09:36:00.479Z,1.85
2022-09-30T09:41:11.917Z,2.08
2022-09-30T09:46:17.933Z,1.70
2022-09-30T09:51:44.137Z,1.98
2022-09-30T09:56:43.679Z,2.97
2022-09-30T10:01:52.417Z,1.83
2022-09-30T10:07:35.876Z,2.03
2022-09-30T10:12:34.265Z,1.60
2022-09-30T10:17:38.143Z,1.55
2022-09-30T10:22:36.887Z,1.80
2022-09-30T10:27:36.595Z,2.00
2022-09-30T10:32:44.966Z,1.70
2022-09-30T10:37:54.324Z,1.50
2022-09-30T10:42:52.621Z,1.77
2022-09-30T10:47:53.131Z,1.88
2022-09-30T10:52:56.676Z,1.65
2022-09-30T10:58:09.482Z,2.03
2022-09-30T11:03:10.174Z,2.08
2022-09-30T11:08:33.515Z,1.73
2022-09-30T11:13:46.769Z,3.00
2022-09-30T11:24:15.949Z,2.17
2022-09-30T11:29:48.735Z,2.25
2022-09-30T11:35:08.632Z,1.77
2022-09-30T11:46:31.776Z,1.80
2022-09-30T11:51:52.914Z,1.63
2022-09-30T11:57:07.954Z,1.77
2022-09-30T12:02:35.320Z,2.13
2022-09-30T12:07:50.774Z,1.80
2022-09-30T12:12:53.786Z,1.48
2022-09-30T12:17:59.438Z,1.45
2022-09-30T12:23:42.462Z,1.63
2022-09-30T12:29:37.529Z,1.98
2022-09-30T12:34:49.398Z,1.50
2022-09-30T12:39:53.844Z,1.35
2022-09-30T12:45:37.202Z,1.52
2022-09-30T12:50:53.404Z,1.50
2022-09-30T12:55:52.545Z,1.30
2022-09-30T13:01:05.890Z,1.85
2022-09-30T13:06:08.323Z,1.73
2022-09-30T13:11:06.624Z,2.08
2022-09-30T13:16:07.676Z,1.90
2022-09-30T13:21:05.448Z,1.42
2022-09-30T13:26:08.512Z,2.40
2022-09-30T13:31:16.021Z,1.95
2022-09-30T13:36:26.460Z,1.70
2022-09-30T13:41:26.097Z,2.08
2022-09-30T13:46:29.972Z,2.03
2022-09-30T13:51:32.774Z,1.75
2022-09-30T13:56:34.657Z,1.73
2022-09-30T14:01:48.613Z,2.22
2022-09-30T14:07:26.780Z,2.20
2022-09-30T14:12:32.014Z,2.20
2022-09-30T14:17:39.470Z,2.65
2022-09-30T14:22:41.142Z,2.22
2022-09-30T14:27:53.747Z,2.00
2022-09-30T14:33:03.162Z,2.00
2022-09-30T14:38:02.651Z,1.73
2022-09-30T14:43:05.123Z,2.50
2022-09-30T14:48:08.825Z,2.65
2022-09-30T14:58:23.488Z,1.30
2022-09-30T15:03:24.157Z,1.08
2022-09-30T15:08:22.179Z,1.27
2022-09-30T15:13:25.139Z,1.42
2022-09-30T15:18:32.549Z,1.35
2022-09-30T15:24:01.703Z,1.75
2022-09-30T15:29:14.524Z,1.27
2022-09-30T15:34:23.246Z,1.70
2022-09-30T15:39:49.715Z,2.75
2022-09-30T15:44:48.270Z,3.88
2022-09-30T15:49:48.922Z,4.28
2022-09-30T15:54:47.219Z,6.65
2022-09-30T16:00:02.316Z,2.50
2022-09-30T16:05:03.046Z,2.05
2022-09-30T16:10:19.585Z,1.30
2022-09-30T16:15:19.590Z,0.98
2022-09-30T16:20:54.135Z,1.17
2022-09-30T16:26:24.503Z,2.53
2022-09-30T16:31:24.497Z,3.60
2022-09-30T16:36:25.530Z,3.35
2022-09-30T16:41:25.633Z,3.38
2022-09-30T16:46:26.385Z,2.58
2022-09-30T16:51:33.225Z,2.47
2022-09-30T16:56:31.768Z,2.45
2022-09-30T17:01:31.136Z,2.03
2022-09-30T17:17:15.505Z,2.90
2022-09-30T17:22:13.646Z,3.63
2022-09-30T17:27:11.514Z,5.32
2022-09-30T17:32:11.491Z,8.23
2022-09-30T17:37:09.487Z,2.75
2022-09-30T17:42:34.419Z,4.40
2022-09-30T17:47:33.272Z,3.17
2022-09-30T17:52:34.389Z,3.65
2022-09-30T17:57:38.668Z,4.88
2022-09-30T18:02:38.950Z,4.68
2022-09-30T18:07:38.152Z,5.40
2022-09-30T18:12:36.511Z,4.30
2022-09-30T18:17:37.352Z,4.07
2022-09-30T18:22:38.370Z,3.65
2022-09-30T18:27:39.368Z,3.58
2022-09-30T18:32:41.456Z,3.92
2022-09-30T18:37:46.002Z,2.85
2022-09-30T18:42:50.150Z,3.40
2022-09-30T18:47:48.732Z,4.97
2022-09-30T18:52:51.061Z,5.30
2022-09-30T18:57:50.520Z,5.97
2022-09-30T19:02:48.331Z,25.23
2022-09-30T19:07:46.859Z,17.88
2022-09-30T19:12:47.697Z,17.40
2022-09-30T19:17:50.488Z,16.33
2022-09-30T19:22:52.078Z,15.20
2022-09-30T19:27:49.790Z,11.80
2022-09-30T19:32:48.031Z,12.57
2022-09-30T19:37:58.668Z,11.80
2022-09-30T19:43:01.144Z,8.32
2022-09-30T19:48:02.174Z,8.55
2022-09-30T19:53:03.263Z,8.07
2022-09-30T19:58:01.987Z,8.40
2022-09-30T20:03:03.398Z,7.60
2022-09-30T20:08:05.086Z,9.00
2022-09-30T20:13:03.684Z,9.15
2022-09-30T20:18:01.932Z,9.52
2022-09-30T20:23:04.824Z,11.10
2022-09-30T20:28:04.913Z,9.07
2022-09-30T20:33:04.547Z,10.43
2022-09-30T20:38:06.316Z,9.43
2022-09-30T20:43:04.664Z,7.60
2022-09-30T20:48:02.912Z,5.82
2022-09-30T20:53:06.163Z,6.63
2022-09-30T20:58:08.178Z,5.10
2022-09-30T21:03:12.751Z,4.97
2022-09-30T21:08:13.706Z,4.55
2022-09-30T21:13:13.834Z,4.07
2022-09-30T21:18:14.973Z,3.33
2022-09-30T21:23:18.492Z,3.20
2022-09-30T21:28:17.266Z,2.70
2022-09-30T21:33:15.405Z,2.75
2022-09-30T21:38:17.286Z,2.97
2022-09-30T21:43:17.314Z,2.67
2022-09-30T21:48:14.721Z,3.00
2022-09-30T21:53:13.089Z,2.92
2022-09-30T21:58:14.415Z,2.70
2022-09-30T22:03:15.955Z,2.50
2022-09-30T22:08:18.160Z,2.65
2022-09-30T22:13:20.669Z,2.38
2022-09-30T22:18:22.578Z,2.65
2022-09-30T22:23:23.290Z,2.60
2022-09-30T22:28:22.653Z,2.20
2022-09-30T22:33:46.066Z,2.28
2022-09-30T22:39:11.261Z,2.30
2022-09-30T22:44:11.292Z,2.80
2022-09-30T22:49:11.994Z,2.70
2022-09-30T22:54:21.328Z,2.60
2022-09-30T22:59:20.479Z,2.15
2022-09-30T23:04:24.837Z,2.40
2022-09-30T23:09:24.398Z,2.33
2022-09-30T23:14:25.540Z,2.20
2022-09-30T23:19:28.195Z,2.38
2022-09-30T23:24:29.123Z,1.83
2022-09-30T23:29:27.333Z,1.90
2022-09-30T23:34:28.171Z,2.17
2022-09-30T23:39:27.028Z,2.38
2022-09-30T23:44:28.689Z,2.10
2022-09-30T23:49:27.945Z,1.88
2022-09-30T23:54:28.563Z,2.22
2022-09-30T23:59:30.399Z,2.35
